CEB113 RPLL-RPUO
Flight info
| Callsign | CEB113 |
|---|---|
| Flight time | 1h 33m |
| Altitude | 14000 |
| Route | CAB2R CAB B462 LAO/N0273F170 |
| Aircraft | AT76/M-SDFGIRY/S |
Departure
| Time | 2026-04-24 09:22 |
|---|---|
| Airport | Ninoy Aquino International Airport (RPLL) |
Arrival
| Time | 2026-04-24 10:55 |
|---|---|
| Airport | Basco Airport (RPUO) |
| Time | Latitude | Longitude | Altitude | Speed | Heading |
|---|---|---|---|---|---|
| 2026-04-24 08:52 | 14.50789 | 121.01198 | 65 ft | 0 kts | 330° |
| 2026-04-24 09:08 | 14.50789 | 121.01199 | 65 ft | 0 kts | 332° |
| 2026-04-24 09:08 | 14.50790 | 121.01188 | 59 ft | 0 kts | 260° |
| 2026-04-24 09:08 | 14.50775 | 121.01184 | 57 ft | 2 kts | 163° |
| 2026-04-24 09:09 | 14.50767 | 121.01199 | 61 ft | 3 kts | 120° |
| 2026-04-24 09:09 | 14.50740 | 121.01224 | 65 ft | 5 kts | 157° |
| 2026-04-24 09:09 | 14.50724 | 121.01233 | 65 ft | 9 kts | 151° |
| 2026-04-24 09:09 | 14.50702 | 121.01226 | 65 ft | 0 kts | 236° |
| 2026-04-24 09:11 | 14.50699 | 121.01221 | 65 ft | 7 kts | 236° |
| 2026-04-24 09:11 | 14.50670 | 121.01172 | 63 ft | 9 kts | 241° |
| 2026-04-24 09:11 | 14.50645 | 121.01137 | 65 ft | 7 kts | 214° |
| 2026-04-24 09:11 | 14.50631 | 121.01129 | 63 ft | 0 kts | 204° |
| 2026-04-24 09:12 | 14.50629 | 121.01129 | 63 ft | 0 kts | 204° |
| 2026-04-24 09:12 | 14.50619 | 121.01127 | 65 ft | 3 kts | 182° |
| 2026-04-24 09:13 | 14.50596 | 121.01131 | 63 ft | 4 kts | 174° |
| 2026-04-24 09:13 | 14.50569 | 121.01124 | 62 ft | 5 kts | 207° |
| 2026-04-24 09:13 | 14.50542 | 121.01092 | 62 ft | 8 kts | 239° |
| 2026-04-24 09:13 | 14.50513 | 121.01038 | 59 ft | 5 kts | 239° |
| 2026-04-24 09:14 | 14.50501 | 121.01017 | 62 ft | 14 kts | 239° |
| 2026-04-24 09:14 | 14.50427 | 121.00891 | 63 ft | 12 kts | 244° |
| 2026-04-24 09:14 | 14.50385 | 121.00806 | 58 ft | 14 kts | 241° |
| 2026-04-24 09:14 | 14.50337 | 121.00722 | 59 ft | 13 kts | 239° |
| 2026-04-24 09:15 | 14.50289 | 121.00636 | 60 ft | 14 kts | 240° |
| 2026-04-24 09:15 | 14.50238 | 121.00544 | 59 ft | 15 kts | 240° |
| 2026-04-24 09:15 | 14.50184 | 121.00447 | 62 ft | 16 kts | 240° |
| 2026-04-24 09:15 | 14.50128 | 121.00347 | 62 ft | 16 kts | 239° |
| 2026-04-24 09:16 | 14.50111 | 121.00318 | 65 ft | 0 kts | 239° |
| 2026-04-24 09:17 | 14.50098 | 121.00294 | 60 ft | 7 kts | 240° |
| 2026-04-24 09:17 | 14.50065 | 121.00235 | 62 ft | 11 kts | 240° |
| 2026-04-24 09:18 | 14.50022 | 121.00158 | 61 ft | 13 kts | 240° |
| 2026-04-24 09:18 | 14.49973 | 121.00070 | 63 ft | 15 kts | 240° |
| 2026-04-24 09:18 | 14.49936 | 121.00002 | 66 ft | 11 kts | 240° |
| 2026-04-24 09:18 | 14.49892 | 120.99964 | 64 ft | 9 kts | 186° |
| 2026-04-24 09:19 | 14.49870 | 120.99970 | 61 ft | 0 kts | 157° |
| 2026-04-24 09:19 | 14.49863 | 120.99973 | 61 ft | 5 kts | 156° |
| 2026-04-24 09:20 | 14.49824 | 120.99996 | 62 ft | 6 kts | 146° |
| 2026-04-24 09:20 | 14.49805 | 121.00027 | 65 ft | 4 kts | 100° |
| 2026-04-24 09:20 | 14.49811 | 121.00051 | 66 ft | 3 kts | 64° |
| 2026-04-24 09:20 | 14.49824 | 121.00077 | 63 ft | 6 kts | 62° |
| 2026-04-24 09:21 | 14.49923 | 121.00259 | 64 ft | 58 kts | 59° |
| 2026-04-24 09:21 | 14.50217 | 121.00790 | 58 ft | 109 kts | 62° |
| 2026-04-24 09:21 | 14.50670 | 121.01529 | 273 ft | 128 kts | 58° |
| 2026-04-24 09:21 | 14.51235 | 121.02310 | 579 ft | 146 kts | 59° |
| 2026-04-24 09:22 | 14.51786 | 121.03290 | 805 ft | 170 kts | 65° |
| 2026-04-24 09:22 | 14.52348 | 121.04446 | 961 ft | 189 kts | 66° |
| 2026-04-24 09:22 | 14.52953 | 121.05679 | 1270 ft | 196 kts | 64° |
| 2026-04-24 09:22 | 14.53617 | 121.06931 | 1598 ft | 202 kts | 63° |
| 2026-04-24 09:23 | 14.54315 | 121.08203 | 1955 ft | 206 kts | 63° |
| 2026-04-24 09:23 | 14.55019 | 121.09474 | 2409 ft | 202 kts | 63° |
| 2026-04-24 09:23 | 14.55715 | 121.10713 | 2906 ft | 197 kts | 63° |
| 2026-04-24 09:23 | 14.56403 | 121.11922 | 3378 ft | 193 kts | 62° |
| 2026-04-24 09:24 | 14.57184 | 121.13029 | 3831 ft | 192 kts | 38° |
| 2026-04-24 09:24 | 14.58427 | 121.13459 | 4333 ft | 189 kts | 9° |
| 2026-04-24 09:24 | 14.59734 | 121.13553 | 4804 ft | 190 kts | 2° |
| 2026-04-24 09:24 | 14.61057 | 121.13550 | 5285 ft | 190 kts | 359° |
| 2026-04-24 09:25 | 14.62376 | 121.13517 | 5773 ft | 190 kts | 359° |
| 2026-04-24 09:25 | 14.63698 | 121.13493 | 6263 ft | 190 kts | 360° |
| 2026-04-24 09:25 | 14.65016 | 121.13478 | 6722 ft | 189 kts | 359° |
| 2026-04-24 09:25 | 14.66327 | 121.13479 | 7186 ft | 188 kts | 359° |
| 2026-04-24 09:26 | 14.67634 | 121.13488 | 7673 ft | 188 kts | 359° |
| 2026-04-24 09:26 | 14.68934 | 121.13500 | 8149 ft | 186 kts | 358° |
| 2026-04-24 09:26 | 14.70223 | 121.13512 | 8640 ft | 184 kts | 355° |
| 2026-04-24 09:26 | 14.71422 | 121.13189 | 9131 ft | 175 kts | 336° |
| 2026-04-24 09:27 | 14.72553 | 121.12731 | 9630 ft | 173 kts | 335° |
| 2026-04-24 09:27 | 14.73663 | 121.12287 | 10094 ft | 169 kts | 335° |
| 2026-04-24 09:27 | 14.74721 | 121.11871 | 10475 ft | 152 kts | 336° |
| 2026-04-24 09:27 | 14.75738 | 121.11486 | 9743 ft | 180 kts | 335° |
| 2026-04-24 09:28 | 14.77191 | 121.10818 | 7716 ft | 262 kts | 333° |
| 2026-04-24 09:28 | 14.78510 | 121.10136 | 8918 ft | 190 kts | 330° |
| 2026-04-24 09:28 | 14.79705 | 121.09683 | 9040 ft | 169 kts | 346° |
| 2026-04-24 09:28 | 14.80835 | 121.09448 | 8994 ft | 163 kts | 345° |
| 2026-04-24 09:29 | 14.81907 | 121.09176 | 8968 ft | 155 kts | 341° |
| 2026-04-24 09:29 | 14.82966 | 121.08883 | 8817 ft | 156 kts | 340° |
| 2026-04-24 09:29 | 14.84047 | 121.08509 | 8834 ft | 174 kts | 336° |
| 2026-04-24 09:29 | 14.85149 | 121.08088 | 9331 ft | 166 kts | 336° |
| 2026-04-24 09:30 | 14.86228 | 121.07684 | 9664 ft | 172 kts | 337° |
| 2026-04-24 09:30 | 14.87420 | 121.07254 | 9754 ft | 189 kts | 338° |
| 2026-04-24 09:30 | 14.88728 | 121.06789 | 9781 ft | 208 kts | 338° |
| 2026-04-24 09:30 | 14.90149 | 121.06325 | 9815 ft | 221 kts | 346° |
| 2026-04-24 09:31 | 14.91728 | 121.06183 | 9862 ft | 234 kts | 355° |
| 2026-04-24 09:31 | 14.93383 | 121.06152 | 9989 ft | 240 kts | 357° |
| 2026-04-24 09:31 | 14.95053 | 121.06116 | 10187 ft | 240 kts | 356° |
| 2026-04-24 09:31 | 14.96702 | 121.06035 | 10514 ft | 234 kts | 354° |
| 2026-04-24 09:32 | 14.98310 | 121.05921 | 10869 ft | 230 kts | 354° |
| 2026-04-24 09:32 | 14.99916 | 121.05791 | 11221 ft | 234 kts | 354° |
| 2026-04-24 09:32 | 15.01556 | 121.05648 | 11584 ft | 239 kts | 354° |
| 2026-04-24 09:32 | 15.03229 | 121.05521 | 11942 ft | 244 kts | 355° |
| 2026-04-24 09:33 | 15.04933 | 121.05403 | 12311 ft | 247 kts | 355° |
| 2026-04-24 09:33 | 15.06660 | 121.05286 | 12682 ft | 250 kts | 355° |
| 2026-04-24 09:33 | 15.08401 | 121.05166 | 13054 ft | 252 kts | 356° |
| 2026-04-24 09:33 | 15.10156 | 121.05043 | 13431 ft | 253 kts | 356° |
| 2026-04-24 09:34 | 15.11921 | 121.04920 | 13732 ft | 258 kts | 356° |
| 2026-04-24 09:34 | 15.13123 | 121.04840 | 13785 ft | 266 kts | 356° |
| 2026-04-24 09:34 | 15.15010 | 121.04711 | 13829 ft | 277 kts | 356° |
| 2026-04-24 09:34 | 15.16942 | 121.04576 | 13856 ft | 280 kts | 356° |
| 2026-04-24 09:35 | 15.19529 | 121.04394 | 13867 ft | 283 kts | 356° |
| 2026-04-24 09:35 | 15.20861 | 121.04299 | 13868 ft | 284 kts | 356° |
| 2026-04-24 09:35 | 15.22829 | 121.04162 | 13871 ft | 282 kts | 356° |
| 2026-04-24 09:35 | 15.24774 | 121.04027 | 13868 ft | 279 kts | 356° |
| 2026-04-24 09:36 | 15.26702 | 121.03893 | 13870 ft | 277 kts | 356° |
| 2026-04-24 09:36 | 15.28613 | 121.03759 | 13870 ft | 275 kts | 356° |
| 2026-04-24 09:36 | 15.30515 | 121.03628 | 13871 ft | 273 kts | 356° |
| 2026-04-24 09:36 | 15.32407 | 121.03495 | 13872 ft | 272 kts | 356° |
| 2026-04-24 09:37 | 15.34288 | 121.03365 | 13872 ft | 271 kts | 356° |
| 2026-04-24 09:37 | 15.36170 | 121.03234 | 13872 ft | 270 kts | 356° |
| 2026-04-24 09:37 | 15.38044 | 121.03103 | 13873 ft | 270 kts | 356° |
| 2026-04-24 09:37 | 15.39915 | 121.02972 | 13869 ft | 270 kts | 356° |
| 2026-04-24 09:38 | 15.41785 | 121.02842 | 13868 ft | 269 kts | 356° |
| 2026-04-24 09:38 | 15.43655 | 121.02717 | 13872 ft | 269 kts | 356° |
| 2026-04-24 09:38 | 15.45527 | 121.02601 | 13871 ft | 270 kts | 356° |
| 2026-04-24 09:38 | 15.47400 | 121.02489 | 13870 ft | 270 kts | 356° |
| 2026-04-24 09:39 | 15.49267 | 121.02476 | 13872 ft | 268 kts | 6° |
| 2026-04-24 09:39 | 15.51108 | 121.02810 | 13868 ft | 269 kts | 12° |
| 2026-04-24 09:39 | 15.52930 | 121.03231 | 13872 ft | 269 kts | 13° |
| 2026-04-24 09:39 | 15.54758 | 121.03648 | 13874 ft | 269 kts | 12° |
| 2026-04-24 09:40 | 15.56592 | 121.04021 | 13872 ft | 268 kts | 10° |
| 2026-04-24 09:40 | 15.58437 | 121.04255 | 13871 ft | 267 kts | 355° |
| 2026-04-24 09:40 | 15.60153 | 121.03607 | 13878 ft | 265 kts | 322° |
| 2026-04-24 09:40 | 15.61450 | 121.02293 | 13871 ft | 259 kts | 319° |
| 2026-04-24 09:41 | 15.63086 | 121.01563 | 13877 ft | 261 kts | 353° |
| 2026-04-24 09:41 | 15.64903 | 121.01519 | 13872 ft | 262 kts | 359° |
| 2026-04-24 09:41 | 15.66711 | 121.01341 | 13874 ft | 261 kts | 351° |
| 2026-04-24 09:41 | 15.68513 | 121.01039 | 13874 ft | 262 kts | 350° |
| 2026-04-24 09:42 | 15.70313 | 121.00722 | 13874 ft | 263 kts | 349° |
| 2026-04-24 09:42 | 15.72121 | 121.00401 | 13875 ft | 264 kts | 349° |
| 2026-04-24 09:42 | 15.73934 | 121.00065 | 13879 ft | 265 kts | 349° |
| 2026-04-24 09:42 | 15.75765 | 120.99704 | 13878 ft | 271 kts | 348° |
| 2026-04-24 09:43 | 15.77629 | 120.99318 | 13876 ft | 275 kts | 348° |
| 2026-04-24 09:43 | 15.79518 | 120.98923 | 13886 ft | 279 kts | 348° |
| 2026-04-24 09:43 | 15.81430 | 120.98527 | 13881 ft | 282 kts | 348° |
| 2026-04-24 09:43 | 15.83357 | 120.98124 | 13886 ft | 284 kts | 348° |
| 2026-04-24 09:44 | 15.85274 | 120.97726 | 13884 ft | 286 kts | 347° |
| 2026-04-24 09:44 | 15.87226 | 120.97318 | 13887 ft | 287 kts | 347° |
| 2026-04-24 09:44 | 15.89191 | 120.96909 | 13886 ft | 288 kts | 347° |
| 2026-04-24 09:44 | 15.91159 | 120.96504 | 13893 ft | 289 kts | 348° |
| 2026-04-24 09:45 | 15.93130 | 120.96100 | 13894 ft | 290 kts | 348° |
| 2026-04-24 09:45 | 15.95110 | 120.95691 | 13895 ft | 290 kts | 347° |
| 2026-04-24 09:45 | 15.97085 | 120.95277 | 13899 ft | 290 kts | 347° |
| 2026-04-24 09:45 | 15.99067 | 120.94866 | 13904 ft | 290 kts | 347° |
| 2026-04-24 09:46 | 16.01048 | 120.94457 | 13902 ft | 291 kts | 347° |
| 2026-04-24 09:46 | 16.03031 | 120.94050 | 13915 ft | 289 kts | 347° |
| 2026-04-24 09:46 | 16.04990 | 120.93651 | 13906 ft | 284 kts | 347° |
| 2026-04-24 09:46 | 16.06913 | 120.93253 | 13907 ft | 280 kts | 347° |
| 2026-04-24 09:47 | 16.08819 | 120.92860 | 13912 ft | 278 kts | 347° |
| 2026-04-24 09:47 | 16.10709 | 120.92473 | 13916 ft | 276 kts | 348° |
| 2026-04-24 09:47 | 16.12589 | 120.92085 | 13917 ft | 274 kts | 347° |
| 2026-04-24 09:47 | 16.14458 | 120.91698 | 13920 ft | 273 kts | 347° |
| 2026-04-24 09:48 | 16.16318 | 120.91323 | 13926 ft | 271 kts | 348° |
| 2026-04-24 09:48 | 16.18173 | 120.90968 | 13931 ft | 271 kts | 348° |
| 2026-04-24 09:48 | 16.20026 | 120.90619 | 13927 ft | 270 kts | 348° |
| 2026-04-24 09:48 | 16.21871 | 120.90268 | 13940 ft | 269 kts | 348° |
| 2026-04-24 09:49 | 16.23709 | 120.89919 | 13942 ft | 269 kts | 348° |
| 2026-04-24 09:49 | 16.25551 | 120.89571 | 13921 ft | 269 kts | 348° |
| 2026-04-24 09:49 | 16.27381 | 120.89219 | 13936 ft | 267 kts | 348° |
| 2026-04-24 09:49 | 16.29206 | 120.88867 | 13944 ft | 267 kts | 348° |
| 2026-04-24 09:50 | 16.31026 | 120.88518 | 13945 ft | 266 kts | 348° |
| 2026-04-24 09:50 | 16.32843 | 120.88172 | 13951 ft | 265 kts | 348° |
| 2026-04-24 09:50 | 16.34663 | 120.87833 | 13955 ft | 265 kts | 348° |
| 2026-04-24 09:50 | 16.36476 | 120.87484 | 13948 ft | 265 kts | 348° |
| 2026-04-24 09:51 | 16.38283 | 120.87130 | 13960 ft | 264 kts | 348° |
| 2026-04-24 09:51 | 16.40095 | 120.86779 | 13967 ft | 265 kts | 348° |
| 2026-04-24 09:51 | 16.41907 | 120.86431 | 13969 ft | 265 kts | 348° |
| 2026-04-24 09:51 | 16.43721 | 120.86086 | 13968 ft | 265 kts | 348° |
| 2026-04-24 09:52 | 16.45537 | 120.85744 | 13970 ft | 265 kts | 348° |
| 2026-04-24 09:52 | 16.47325 | 120.85400 | 13975 ft | 265 kts | 348° |
| 2026-04-24 09:52 | 16.49137 | 120.85049 | 13981 ft | 265 kts | 348° |
| 2026-04-24 09:52 | 16.50975 | 120.84695 | 13980 ft | 266 kts | 348° |
| 2026-04-24 09:53 | 16.52793 | 120.84350 | 13975 ft | 265 kts | 348° |
| 2026-04-24 09:53 | 16.54583 | 120.84006 | 13987 ft | 266 kts | 348° |
| 2026-04-24 09:53 | 16.56404 | 120.83657 | 13982 ft | 266 kts | 348° |
| 2026-04-24 09:53 | 16.58223 | 120.83306 | 13989 ft | 266 kts | 348° |
| 2026-04-24 09:54 | 16.60041 | 120.82956 | 13985 ft | 266 kts | 348° |
| 2026-04-24 09:54 | 16.61860 | 120.82611 | 13984 ft | 266 kts | 348° |
| 2026-04-24 09:54 | 16.63681 | 120.82263 | 13989 ft | 266 kts | 348° |
| 2026-04-24 09:54 | 16.65499 | 120.81909 | 13986 ft | 266 kts | 348° |
| 2026-04-24 09:55 | 16.67320 | 120.81561 | 13998 ft | 267 kts | 348° |
| 2026-04-24 09:55 | 16.69147 | 120.81212 | 13997 ft | 267 kts | 348° |
| 2026-04-24 09:55 | 16.70979 | 120.80861 | 13991 ft | 268 kts | 348° |
| 2026-04-24 09:55 | 16.72811 | 120.80510 | 13992 ft | 268 kts | 348° |
| 2026-04-24 09:56 | 16.74642 | 120.80158 | 14002 ft | 268 kts | 348° |
| 2026-04-24 09:56 | 16.76478 | 120.79806 | 13989 ft | 269 kts | 348° |
| 2026-04-24 09:56 | 16.78317 | 120.79456 | 13979 ft | 269 kts | 348° |
| 2026-04-24 09:56 | 16.80154 | 120.79108 | 13976 ft | 268 kts | 348° |
| 2026-04-24 09:57 | 16.81984 | 120.78765 | 13981 ft | 267 kts | 348° |
| 2026-04-24 09:57 | 16.83813 | 120.78422 | 13986 ft | 266 kts | 348° |
| 2026-04-24 09:57 | 16.85634 | 120.78078 | 13990 ft | 266 kts | 348° |
| 2026-04-24 09:57 | 16.87459 | 120.77731 | 13986 ft | 267 kts | 348° |
| 2026-04-24 09:58 | 16.89284 | 120.77384 | 13985 ft | 267 kts | 348° |
| 2026-04-24 09:58 | 16.91107 | 120.77036 | 13978 ft | 267 kts | 348° |
| 2026-04-24 09:58 | 16.92924 | 120.76686 | 13978 ft | 266 kts | 348° |
| 2026-04-24 09:58 | 16.94751 | 120.76336 | 13980 ft | 266 kts | 348° |
| 2026-04-24 09:59 | 16.96574 | 120.75984 | 13977 ft | 266 kts | 348° |
| 2026-04-24 09:59 | 16.98397 | 120.75632 | 13974 ft | 266 kts | 348° |
| 2026-04-24 09:59 | 17.00218 | 120.75281 | 13973 ft | 266 kts | 348° |
| 2026-04-24 09:59 | 17.02039 | 120.74928 | 13973 ft | 266 kts | 348° |
| 2026-04-24 10:00 | 17.03862 | 120.74577 | 13969 ft | 266 kts | 348° |
| 2026-04-24 10:00 | 17.05659 | 120.74233 | 13969 ft | 267 kts | 348° |
| 2026-04-24 10:00 | 17.07486 | 120.73883 | 13964 ft | 267 kts | 348° |
| 2026-04-24 10:00 | 17.09335 | 120.73527 | 13965 ft | 267 kts | 348° |
| 2026-04-24 10:01 | 17.11138 | 120.73178 | 13962 ft | 267 kts | 348° |
| 2026-04-24 10:01 | 17.12965 | 120.72822 | 13963 ft | 267 kts | 348° |
| 2026-04-24 10:01 | 17.14792 | 120.72467 | 13963 ft | 268 kts | 348° |
| 2026-04-24 10:01 | 17.16626 | 120.72111 | 13963 ft | 268 kts | 348° |
| 2026-04-24 10:02 | 17.18461 | 120.71751 | 13956 ft | 268 kts | 348° |
| 2026-04-24 10:02 | 17.20295 | 120.71389 | 13955 ft | 268 kts | 348° |
| 2026-04-24 10:02 | 17.22129 | 120.71028 | 13951 ft | 269 kts | 348° |
| 2026-04-24 10:02 | 17.23970 | 120.70670 | 13930 ft | 268 kts | 348° |
| 2026-04-24 10:03 | 17.25805 | 120.70321 | 13951 ft | 268 kts | 348° |
| 2026-04-24 10:03 | 17.27635 | 120.69967 | 13953 ft | 268 kts | 348° |
| 2026-04-24 10:03 | 17.29467 | 120.69609 | 13946 ft | 268 kts | 348° |
| 2026-04-24 10:03 | 17.31305 | 120.69253 | 13935 ft | 269 kts | 348° |
| 2026-04-24 10:04 | 17.33148 | 120.68911 | 13927 ft | 268 kts | 348° |
| 2026-04-24 10:04 | 17.34974 | 120.68570 | 13932 ft | 266 kts | 348° |
| 2026-04-24 10:04 | 17.36795 | 120.68222 | 13945 ft | 266 kts | 348° |
| 2026-04-24 10:04 | 17.38617 | 120.67870 | 13945 ft | 267 kts | 348° |
| 2026-04-24 10:05 | 17.40446 | 120.67519 | 13940 ft | 268 kts | 348° |
| 2026-04-24 10:05 | 17.42280 | 120.67162 | 13933 ft | 268 kts | 348° |
| 2026-04-24 10:05 | 17.44116 | 120.66807 | 13930 ft | 269 kts | 348° |
| 2026-04-24 10:05 | 17.45956 | 120.66451 | 13931 ft | 269 kts | 348° |
| 2026-04-24 10:06 | 17.47794 | 120.66097 | 13938 ft | 269 kts | 348° |
| 2026-04-24 10:06 | 17.51490 | 120.65380 | 13932 ft | 270 kts | 348° |
| 2026-04-24 10:06 | 17.53342 | 120.65022 | 13922 ft | 271 kts | 348° |
| 2026-04-24 10:07 | 17.55195 | 120.64664 | 13923 ft | 271 kts | 348° |
| 2026-04-24 10:07 | 17.57047 | 120.64304 | 13922 ft | 271 kts | 348° |
| 2026-04-24 10:07 | 17.58901 | 120.63945 | 13921 ft | 271 kts | 348° |
| 2026-04-24 10:07 | 17.60754 | 120.63586 | 13923 ft | 271 kts | 348° |
| 2026-04-24 10:08 | 17.62610 | 120.63226 | 13918 ft | 271 kts | 348° |
| 2026-04-24 10:08 | 17.64464 | 120.62865 | 13916 ft | 271 kts | 348° |
| 2026-04-24 10:08 | 17.66319 | 120.62506 | 13909 ft | 271 kts | 348° |
| 2026-04-24 10:08 | 17.68171 | 120.62148 | 13914 ft | 270 kts | 348° |
| 2026-04-24 10:09 | 17.70016 | 120.61787 | 13913 ft | 270 kts | 348° |
| 2026-04-24 10:09 | 17.71865 | 120.61426 | 13924 ft | 270 kts | 348° |
| 2026-04-24 10:09 | 17.73714 | 120.61066 | 13922 ft | 270 kts | 348° |
| 2026-04-24 10:09 | 17.75569 | 120.60718 | 13920 ft | 271 kts | 349° |
| 2026-04-24 10:10 | 17.77432 | 120.60377 | 13917 ft | 272 kts | 349° |
| 2026-04-24 10:10 | 17.79302 | 120.60044 | 13913 ft | 273 kts | 349° |
| 2026-04-24 10:10 | 17.81173 | 120.59712 | 13908 ft | 273 kts | 349° |
| 2026-04-24 10:10 | 17.83042 | 120.59378 | 13894 ft | 271 kts | 349° |
| 2026-04-24 10:11 | 17.84899 | 120.59046 | 13918 ft | 270 kts | 349° |
| 2026-04-24 10:11 | 17.86757 | 120.58706 | 13920 ft | 271 kts | 349° |
| 2026-04-24 10:11 | 17.88622 | 120.58362 | 13917 ft | 272 kts | 349° |
| 2026-04-24 10:11 | 17.90489 | 120.58018 | 13920 ft | 273 kts | 349° |
| 2026-04-24 10:12 | 17.92367 | 120.57670 | 13913 ft | 274 kts | 349° |
| 2026-04-24 10:12 | 17.94217 | 120.57328 | 13913 ft | 274 kts | 349° |
| 2026-04-24 10:12 | 17.96117 | 120.56978 | 13911 ft | 274 kts | 348° |
| 2026-04-24 10:12 | 17.97997 | 120.56629 | 13915 ft | 274 kts | 349° |
| 2026-04-24 10:13 | 17.99873 | 120.56283 | 13911 ft | 274 kts | 348° |
| 2026-04-24 10:13 | 18.01753 | 120.55938 | 13913 ft | 274 kts | 349° |
| 2026-04-24 10:13 | 18.03605 | 120.55591 | 13916 ft | 274 kts | 348° |
| 2026-04-24 10:13 | 18.05505 | 120.55230 | 13917 ft | 274 kts | 348° |
| 2026-04-24 10:14 | 18.07377 | 120.54865 | 13917 ft | 274 kts | 348° |
| 2026-04-24 10:14 | 18.09251 | 120.54500 | 13913 ft | 274 kts | 348° |
| 2026-04-24 10:14 | 18.11125 | 120.54136 | 13914 ft | 274 kts | 348° |
| 2026-04-24 10:14 | 18.12975 | 120.53787 | 13916 ft | 273 kts | 349° |
| 2026-04-24 10:15 | 18.14847 | 120.53437 | 13913 ft | 273 kts | 348° |
| 2026-04-24 10:15 | 18.16721 | 120.53101 | 13914 ft | 271 kts | 352° |
| 2026-04-24 10:15 | 18.18598 | 120.53381 | 13918 ft | 273 kts | 19° |
| 2026-04-24 10:15 | 18.20291 | 120.54228 | 13919 ft | 275 kts | 30° |
| 2026-04-24 10:16 | 18.21913 | 120.55295 | 13914 ft | 276 kts | 33° |
| 2026-04-24 10:16 | 18.23524 | 120.56400 | 13917 ft | 276 kts | 33° |
| 2026-04-24 10:16 | 18.25141 | 120.57488 | 13916 ft | 276 kts | 32° |
| 2026-04-24 10:16 | 18.26783 | 120.58536 | 13915 ft | 276 kts | 30° |
| 2026-04-24 10:17 | 18.28435 | 120.59570 | 13915 ft | 276 kts | 31° |
| 2026-04-24 10:17 | 18.30088 | 120.60610 | 13912 ft | 277 kts | 31° |
| 2026-04-24 10:17 | 18.31738 | 120.61652 | 13916 ft | 277 kts | 31° |
| 2026-04-24 10:17 | 18.33392 | 120.62692 | 13915 ft | 277 kts | 31° |
| 2026-04-24 10:18 | 18.35041 | 120.63732 | 13913 ft | 277 kts | 31° |
| 2026-04-24 10:18 | 18.36701 | 120.64777 | 13917 ft | 277 kts | 31° |
| 2026-04-24 10:18 | 18.38358 | 120.65819 | 13918 ft | 277 kts | 31° |
| 2026-04-24 10:18 | 18.40011 | 120.66864 | 13910 ft | 277 kts | 31° |
| 2026-04-24 10:19 | 18.41665 | 120.67906 | 13913 ft | 277 kts | 31° |
| 2026-04-24 10:19 | 18.43314 | 120.68948 | 13914 ft | 277 kts | 31° |
| 2026-04-24 10:19 | 18.44966 | 120.69987 | 13908 ft | 276 kts | 31° |
| 2026-04-24 10:19 | 18.46606 | 120.71023 | 13915 ft | 276 kts | 31° |
| 2026-04-24 10:20 | 18.48257 | 120.72066 | 13919 ft | 275 kts | 31° |
| 2026-04-24 10:20 | 18.49901 | 120.73104 | 13919 ft | 275 kts | 30° |
| 2026-04-24 10:20 | 18.51545 | 120.74139 | 13920 ft | 276 kts | 30° |
| 2026-04-24 10:20 | 18.52637 | 120.74824 | 13920 ft | 276 kts | 30° |
| 2026-04-24 10:21 | 18.54837 | 120.76213 | 13919 ft | 276 kts | 31° |
| 2026-04-24 10:21 | 18.56477 | 120.77250 | 13920 ft | 275 kts | 31° |
| 2026-04-24 10:21 | 18.57565 | 120.77939 | 13920 ft | 275 kts | 31° |
| 2026-04-24 10:21 | 18.59209 | 120.78980 | 13925 ft | 275 kts | 30° |
| 2026-04-24 10:22 | 18.60848 | 120.80017 | 13924 ft | 275 kts | 30° |
| 2026-04-24 10:22 | 18.62497 | 120.81055 | 13920 ft | 276 kts | 30° |
| 2026-04-24 10:22 | 18.64141 | 120.82094 | 13923 ft | 276 kts | 30° |
| 2026-04-24 10:22 | 18.65784 | 120.83133 | 13925 ft | 275 kts | 30° |
| 2026-04-24 10:23 | 18.67427 | 120.84175 | 13924 ft | 275 kts | 30° |
| 2026-04-24 10:23 | 18.69067 | 120.85214 | 13923 ft | 275 kts | 30° |
| 2026-04-24 10:23 | 18.70710 | 120.86253 | 13925 ft | 275 kts | 30° |
| 2026-04-24 10:23 | 18.72351 | 120.87292 | 13924 ft | 275 kts | 30° |
| 2026-04-24 10:24 | 18.73991 | 120.88331 | 13924 ft | 275 kts | 30° |
| 2026-04-24 10:24 | 18.75630 | 120.89370 | 13925 ft | 275 kts | 30° |
| 2026-04-24 10:24 | 18.77272 | 120.90407 | 13927 ft | 275 kts | 30° |
| 2026-04-24 10:24 | 18.78912 | 120.91446 | 13926 ft | 275 kts | 30° |
| 2026-04-24 10:25 | 18.80606 | 120.92346 | 13923 ft | 271 kts | 17° |
| 2026-04-24 10:25 | 18.82367 | 120.93029 | 13929 ft | 271 kts | 24° |
| 2026-04-24 10:25 | 18.84068 | 120.93887 | 13926 ft | 272 kts | 25° |
| 2026-04-24 10:25 | 18.85764 | 120.94784 | 13928 ft | 273 kts | 26° |
| 2026-04-24 10:26 | 18.87457 | 120.95695 | 13926 ft | 273 kts | 26° |
| 2026-04-24 10:26 | 18.89151 | 120.96614 | 13930 ft | 274 kts | 26° |
| 2026-04-24 10:26 | 18.90846 | 120.97538 | 13931 ft | 275 kts | 26° |
| 2026-04-24 10:26 | 18.92548 | 120.98466 | 13926 ft | 275 kts | 26° |
| 2026-04-24 10:27 | 18.94248 | 120.99394 | 13926 ft | 275 kts | 26° |
| 2026-04-24 10:27 | 18.95951 | 121.00323 | 13930 ft | 276 kts | 26° |
| 2026-04-24 10:27 | 18.97654 | 121.01250 | 13930 ft | 276 kts | 26° |
| 2026-04-24 10:27 | 18.99357 | 121.02180 | 13927 ft | 276 kts | 26° |
| 2026-04-24 10:28 | 19.01061 | 121.03110 | 13931 ft | 275 kts | 26° |
| 2026-04-24 10:28 | 19.02764 | 121.04039 | 13934 ft | 275 kts | 26° |
| 2026-04-24 10:28 | 19.04467 | 121.04968 | 13936 ft | 275 kts | 26° |
| 2026-04-24 10:28 | 19.06169 | 121.05897 | 13933 ft | 275 kts | 26° |
| 2026-04-24 10:29 | 19.07850 | 121.06814 | 13931 ft | 276 kts | 26° |
| 2026-04-24 10:29 | 19.09551 | 121.07746 | 13932 ft | 276 kts | 26° |
| 2026-04-24 10:29 | 19.11255 | 121.08677 | 13934 ft | 276 kts | 26° |
| 2026-04-24 10:29 | 19.12961 | 121.09608 | 13933 ft | 276 kts | 26° |
| 2026-04-24 10:30 | 19.14667 | 121.10539 | 13933 ft | 276 kts | 26° |
| 2026-04-24 10:30 | 19.16373 | 121.11470 | 13933 ft | 276 kts | 26° |
| 2026-04-24 10:30 | 19.18077 | 121.12399 | 13934 ft | 276 kts | 26° |
| 2026-04-24 10:30 | 19.19783 | 121.13331 | 13933 ft | 276 kts | 26° |
| 2026-04-24 10:31 | 19.21484 | 121.14260 | 13934 ft | 276 kts | 26° |
| 2026-04-24 10:31 | 19.23191 | 121.15194 | 13934 ft | 276 kts | 26° |
| 2026-04-24 10:31 | 19.24898 | 121.16129 | 13934 ft | 276 kts | 26° |
| 2026-04-24 10:31 | 19.26604 | 121.17060 | 13934 ft | 276 kts | 26° |
| 2026-04-24 10:32 | 19.28309 | 121.17992 | 13934 ft | 276 kts | 26° |
| 2026-04-24 10:32 | 19.30017 | 121.18926 | 13937 ft | 276 kts | 26° |
| 2026-04-24 10:32 | 19.31718 | 121.19858 | 13933 ft | 276 kts | 26° |
| 2026-04-24 10:32 | 19.33426 | 121.20795 | 13935 ft | 276 kts | 26° |
| 2026-04-24 10:33 | 19.35127 | 121.21729 | 13935 ft | 276 kts | 26° |
| 2026-04-24 10:33 | 19.36829 | 121.22664 | 13930 ft | 276 kts | 26° |
| 2026-04-24 10:33 | 19.38533 | 121.23598 | 13934 ft | 276 kts | 26° |
| 2026-04-24 10:33 | 19.40242 | 121.24536 | 13856 ft | 279 kts | 26° |
| 2026-04-24 10:34 | 19.41988 | 121.25493 | 13631 ft | 287 kts | 26° |
| 2026-04-24 10:34 | 19.43788 | 121.26479 | 13357 ft | 293 kts | 26° |
| 2026-04-24 10:34 | 19.45616 | 121.27478 | 13117 ft | 298 kts | 26° |
| 2026-04-24 10:34 | 19.47469 | 121.28488 | 12870 ft | 301 kts | 27° |
| 2026-04-24 10:35 | 19.49342 | 121.29512 | 12618 ft | 304 kts | 27° |
| 2026-04-24 10:35 | 19.51228 | 121.30540 | 12373 ft | 306 kts | 26° |
| 2026-04-24 10:35 | 19.53131 | 121.31569 | 12126 ft | 306 kts | 26° |
| 2026-04-24 10:35 | 19.55028 | 121.32592 | 11886 ft | 306 kts | 26° |
| 2026-04-24 10:36 | 19.56920 | 121.33607 | 11645 ft | 304 kts | 26° |
| 2026-04-24 10:36 | 19.58809 | 121.34620 | 11405 ft | 304 kts | 26° |
| 2026-04-24 10:36 | 19.60715 | 121.35641 | 11164 ft | 303 kts | 26° |
| 2026-04-24 10:36 | 19.62594 | 121.36645 | 10926 ft | 302 kts | 26° |
| 2026-04-24 10:37 | 19.64471 | 121.37646 | 10697 ft | 301 kts | 26° |
| 2026-04-24 10:37 | 19.66344 | 121.38645 | 10459 ft | 301 kts | 26° |
| 2026-04-24 10:37 | 19.68213 | 121.39645 | 10231 ft | 301 kts | 26° |
| 2026-04-24 10:37 | 19.70083 | 121.40643 | 10018 ft | 300 kts | 26° |
| 2026-04-24 10:38 | 19.71940 | 121.41630 | 9803 ft | 298 kts | 26° |
| 2026-04-24 10:38 | 19.73793 | 121.42608 | 9532 ft | 297 kts | 26° |
| 2026-04-24 10:38 | 19.75633 | 121.43583 | 9252 ft | 293 kts | 26° |
| 2026-04-24 10:38 | 19.77441 | 121.44549 | 8981 ft | 289 kts | 26° |
| 2026-04-24 10:39 | 19.79197 | 121.45492 | 8719 ft | 285 kts | 26° |
| 2026-04-24 10:39 | 19.80959 | 121.46439 | 8441 ft | 283 kts | 26° |
| 2026-04-24 10:39 | 19.82710 | 121.47381 | 8170 ft | 281 kts | 26° |
| 2026-04-24 10:39 | 19.84445 | 121.48318 | 7906 ft | 279 kts | 26° |
| 2026-04-24 10:40 | 19.86176 | 121.49250 | 7617 ft | 278 kts | 26° |
| 2026-04-24 10:40 | 19.87902 | 121.50185 | 7305 ft | 279 kts | 26° |
| 2026-04-24 10:40 | 19.89628 | 121.51126 | 6997 ft | 279 kts | 26° |
| 2026-04-24 10:40 | 19.91356 | 121.52046 | 6693 ft | 275 kts | 21° |
| 2026-04-24 10:41 | 19.93216 | 121.52321 | 6388 ft | 270 kts | 351° |
| 2026-04-24 10:41 | 19.95039 | 121.51924 | 6076 ft | 267 kts | 345° |
| 2026-04-24 10:41 | 19.96842 | 121.51439 | 5758 ft | 268 kts | 343° |
| 2026-04-24 10:41 | 19.98639 | 121.50923 | 5444 ft | 268 kts | 343° |
| 2026-04-24 10:42 | 20.00432 | 121.50391 | 5133 ft | 268 kts | 342° |
| 2026-04-24 10:42 | 20.02222 | 121.49851 | 4817 ft | 267 kts | 342° |
| 2026-04-24 10:42 | 20.03993 | 121.49314 | 4695 ft | 260 kts | 342° |
| 2026-04-24 10:42 | 20.05719 | 121.48804 | 4527 ft | 254 kts | 346° |
| 2026-04-24 10:43 | 20.07457 | 121.48931 | 4353 ft | 255 kts | 19° |
| 2026-04-24 10:43 | 20.09022 | 121.49797 | 4217 ft | 252 kts | 28° |
| 2026-04-24 10:43 | 20.10526 | 121.50743 | 4124 ft | 250 kts | 30° |
| 2026-04-24 10:43 | 20.11983 | 121.51728 | 4032 ft | 247 kts | 34° |
| 2026-04-24 10:44 | 20.13352 | 121.52829 | 3932 ft | 247 kts | 37° |
| 2026-04-24 10:44 | 20.14658 | 121.54005 | 3839 ft | 246 kts | 41° |
| 2026-04-24 10:44 | 20.15910 | 121.55243 | 3744 ft | 245 kts | 42° |
| 2026-04-24 10:44 | 20.17140 | 121.56493 | 3648 ft | 245 kts | 42° |
| 2026-04-24 10:45 | 20.18319 | 121.57791 | 3548 ft | 244 kts | 46° |
| 2026-04-24 10:45 | 20.19457 | 121.59132 | 3459 ft | 241 kts | 46° |
| 2026-04-24 10:45 | 20.20526 | 121.60445 | 3362 ft | 228 kts | 49° |
| 2026-04-24 10:45 | 20.21492 | 121.61743 | 3238 ft | 220 kts | 51° |
| 2026-04-24 10:46 | 20.22395 | 121.63026 | 3039 ft | 209 kts | 52° |
| 2026-04-24 10:46 | 20.23216 | 121.64223 | 2802 ft | 191 kts | 52° |
| 2026-04-24 10:46 | 20.23967 | 121.65326 | 2576 ft | 177 kts | 53° |
| 2026-04-24 10:46 | 20.24659 | 121.66357 | 2450 ft | 167 kts | 53° |
| 2026-04-24 10:47 | 20.25317 | 121.67342 | 2332 ft | 159 kts | 53° |
| 2026-04-24 10:47 | 20.25927 | 121.68261 | 2294 ft | 148 kts | 53° |
| 2026-04-24 10:47 | 20.26573 | 121.69192 | 2295 ft | 165 kts | 51° |
| 2026-04-24 10:47 | 20.27288 | 121.70224 | 2290 ft | 182 kts | 52° |
| 2026-04-24 10:48 | 20.28057 | 121.71360 | 2233 ft | 196 kts | 53° |
| 2026-04-24 10:48 | 20.28848 | 121.72590 | 2204 ft | 205 kts | 55° |
| 2026-04-24 10:48 | 20.29633 | 121.73874 | 2160 ft | 206 kts | 56° |
| 2026-04-24 10:48 | 20.30401 | 121.75149 | 2122 ft | 202 kts | 57° |
| 2026-04-24 10:49 | 20.31146 | 121.76386 | 2065 ft | 195 kts | 56° |
| 2026-04-24 10:49 | 20.31868 | 121.77571 | 2028 ft | 186 kts | 56° |
| 2026-04-24 10:49 | 20.32541 | 121.78678 | 1967 ft | 170 kts | 55° |
| 2026-04-24 10:49 | 20.33141 | 121.79659 | 1935 ft | 152 kts | 55° |
| 2026-04-24 10:50 | 20.33720 | 121.80599 | 1887 ft | 149 kts | 54° |
| 2026-04-24 10:50 | 20.34290 | 121.81510 | 1847 ft | 151 kts | 54° |
| 2026-04-24 10:50 | 20.34880 | 121.82433 | 1783 ft | 150 kts | 53° |
| 2026-04-24 10:50 | 20.35475 | 121.83340 | 1721 ft | 149 kts | 53° |
| 2026-04-24 10:51 | 20.36070 | 121.84245 | 1674 ft | 149 kts | 53° |
| 2026-04-24 10:51 | 20.36681 | 121.85130 | 1624 ft | 148 kts | 51° |
| 2026-04-24 10:51 | 20.37294 | 121.86006 | 1578 ft | 148 kts | 51° |
| 2026-04-24 10:51 | 20.37925 | 121.86870 | 1533 ft | 148 kts | 50° |
| 2026-04-24 10:52 | 20.38515 | 121.87771 | 1489 ft | 148 kts | 54° |
| 2026-04-24 10:52 | 20.39088 | 121.88688 | 1437 ft | 148 kts | 55° |
| 2026-04-24 10:52 | 20.39643 | 121.89579 | 1374 ft | 142 kts | 55° |
| 2026-04-24 10:52 | 20.40177 | 121.90447 | 1331 ft | 139 kts | 55° |
| 2026-04-24 10:53 | 20.40712 | 121.91304 | 1275 ft | 139 kts | 54° |
| 2026-04-24 10:53 | 20.41245 | 121.92162 | 1216 ft | 138 kts | 53° |
| 2026-04-24 10:53 | 20.41791 | 121.93011 | 1179 ft | 138 kts | 55° |
| 2026-04-24 10:53 | 20.42335 | 121.93841 | 1177 ft | 138 kts | 51° |
| 2026-04-24 10:54 | 20.42894 | 121.94675 | 1153 ft | 138 kts | 53° |
| 2026-04-24 10:54 | 20.43460 | 121.95500 | 1063 ft | 138 kts | 53° |
| 2026-04-24 10:54 | 20.44023 | 121.96333 | 899 ft | 138 kts | 52° |
| 2026-04-24 10:54 | 20.44591 | 121.97175 | 530 ft | 141 kts | 54° |
| 2026-04-24 10:55 | 20.45121 | 121.97995 | 327 ft | 122 kts | 54° |
| 2026-04-24 10:55 | 20.45341 | 121.98332 | 320 ft | 5 kts | 55° |
| 2026-04-24 10:55 | 20.45354 | 121.98352 | 320 ft | 0 kts | 60° |
| 2026-04-24 10:55 | 20.45370 | 121.98392 | 321 ft | 3 kts | 45° |
| 2026-04-24 10:56 | 20.45375 | 121.98362 | 320 ft | 14 kts | 230° |
| 2026-04-24 10:56 | 20.45303 | 121.98267 | 320 ft | 18 kts | 236° |
| 2026-04-24 10:56 | 20.45231 | 121.98216 | 320 ft | 10 kts | 174° |
| 2026-04-24 10:56 | 20.45215 | 121.98225 | 321 ft | 0 kts | 143° |